Time;durP1;ratioP1;P1;durP2;ratioP2;P2;SDS_P1;SDS_P2;PMS_P1;PMS_P2;Temp;Humidity;BMP_temperature;BMP_pressure;BME280_temperature;BME280_humidity;BME280_pressure;Samples;Min_cycle;Max_cycle;Signal;HPM_P1;HPM_P2
2021/06/01 00:01:51;;;;;;;5.17;3.25;;;;;;;10.63;67.72;99542.28;1704755;82;21051;-41
2021/06/01 00:04:19;;;;;;;10.95;4.35;;;;;;;10.63;67.64;99536.86;1704970;84;21023;-41
2021/06/01 00:06:46;;;;;;;6.12;3.80;;;;;;;10.62;67.56;99540.70;1709570;82;21111;-41
2021/06/01 00:09:19;;;;;;;6.95;3.67;;;;;;;10.59;67.75;99545.48;1717829;82;21624;-41
2021/06/01 00:11:47;;;;;;;9.38;3.72;;;;;;;10.59;67.88;99538.71;1719213;82;20908;-41
2021/06/01 00:14:15;;;;;;;8.45;3.77;;;;;;;10.57;68.12;99543.69;1720481;82;21079;-41
2021/06/01 00:16:41;;;;;;;11.18;4.22;;;;;;;10.57;67.81;99542.91;1718867;82;21027;-41
2021/06/01 00:19:10;;;;;;;8.95;4.22;;;;;;;10.50;67.85;99544.12;1718245;82;21081;-41
2021/06/01 00:21:37;;;;;;;7.42;4.22;;;;;;;10.42;68.09;99535.03;1742481;82;20975;-41
2021/06/01 00:24:06;;;;;;;5.78;4.12;;;;;;;10.36;68.06;99537.22;1745898;82;20967;-41
2021/06/01 00:26:33;;;;;;;8.55;3.90;;;;;;;10.31;68.28;99537.50;1735419;82;21130;-41
2021/06/01 00:29:01;;;;;;;6.67;3.85;;;;;;;10.27;68.31;99531.22;1718276;82;21043;-41
2021/06/01 00:31:27;;;;;;;10.30;4.62;;;;;;;10.29;68.43;99528.16;1735044;82;21058;-41
2021/06/01 00:33:54;;;;;;;9.73;4.00;;;;;;;10.30;68.61;99528.38;1718292;82;21026;-40
2021/06/01 00:36:20;;;;;;;6.20;3.65;;;;;;;10.30;68.56;99535.16;1718669;82;21111;-40
2021/06/01 00:38:47;;;;;;;6.80;3.67;;;;;;;10.26;68.69;99526.92;1718272;82;21553;-41
2021/06/01 00:41:16;;;;;;;6.25;3.70;;;;;;;10.25;68.73;99528.66;1723346;82;21063;-41
2021/06/01 00:43:43;;;;;;;8.15;3.98;;;;;;;10.23;68.75;99531.71;1742392;82;21090;-41
2021/06/01 00:46:09;;;;;;;9.18;3.80;;;;;;;10.25;68.66;99525.95;1739976;82;21648;-41
2021/06/01 00:48:36;;;;;;;6.40;4.00;;;;;;;10.25;68.73;99532.72;1718266;83;20980;-41
2021/06/01 00:51:04;;;;;;;7.08;3.45;;;;;;;10.24;68.72;99527.87;1718279;83;21015;-41
2021/06/01 00:53:31;;;;;;;9.15;3.85;;;;;;;10.24;68.82;99531.14;1732689;82;21592;-41
2021/06/01 00:55:58;;;;;;;5.33;3.75;;;;;;;10.19;68.92;99537.63;1719233;82;21799;-41
2021/06/01 00:58:26;;;;;;;8.28;3.70;;;;;;;10.16;69.00;99532.12;1718285;82;20963;-41
2021/06/01 01:03:26;;;;;;;7.80;3.72;;;;;;;10.20;69.02;99532.99;1720604;82;21086;-41
2021/06/01 01:05:55;;;;;;;9.78;3.72;;;;;;;10.17;69.14;99532.32;1718414;83;20967;-41
2021/06/01 01:08:46;;;;;;;8.40;3.10;;;;;;;10.17;69.21;99533.11;1716381;82;21111;-41
2021/06/01 01:11:15;;;;;;;5.58;3.52;;;;;;;10.15;68.83;99534.02;1703360;82;21605;-41
2021/06/01 01:13:47;;;;;;;9.00;3.62;;;;;;;10.15;68.83;99534.02;1717072;82;21957;-40
2021/06/01 01:16:14;;;;;;;7.20;3.60;;;;;;;10.13;68.61;99526.80;1732563;81;21031;-41
2021/06/01 01:18:41;;;;;;;6.05;4.00;;;;;;;10.08;68.86;99529.77;1725016;81;21663;-41
2021/06/01 01:21:37;;;;;;;8.35;4.55;;;;;;;10.05;69.01;99531.84;1692746;82;21428;-41
2021/06/01 01:24:39;;;;;;;6.70;4.00;;;;;;;9.99;69.07;99531.31;1697101;84;21355;-41
2021/06/01 01:27:48;;;;;;;16.30;4.35;;;;;;;9.92;69.39;99523.61;1703295;82;21035;-41
2021/06/01 01:30:16;;;;;;;10.98;5.00;;;;;;;9.97;69.34;99533.58;1704791;82;21103;-41
2021/06/01 01:33:09;;;;;;;8.60;5.20;;;;;;;9.92;69.53;99533.84;1704900;82;21075;-41
2021/06/01 01:35:36;;;;;;;11.33;4.90;;;;;;;9.90;69.50;99538.05;1704719;82;21842;-41
2021/06/01 01:38:03;;;;;;;6.45;4.10;;;;;;;9.85;69.68;99529.63;1685153;82;21594;-41
2021/06/01 01:40:31;;;;;;;7.47;4.30;;;;;;;9.85;69.91;99536.96;1704981;82;21072;-41
2021/06/01 01:43:06;;;;;;;7.92;5.15;;;;;;;9.93;69.92;99534.06;1728360;82;21688;-41
2021/06/01 01:45:34;;;;;;;9.23;5.12;;;;;;;10.00;69.96;99536.17;1718747;82;21052;-41
2021/06/01 01:51:11;;;;;;;9.05;4.97;;;;;;;10.07;70.02;99547.75;1704852;82;21584;-41
2021/06/01 01:53:27;;;;;;;9.93;4.40;;;;;;;10.04;69.92;99544.59;1708283;82;20980;-41
2021/06/01 01:55:54;;;;;;;7.50;4.20;;;;;;;10.02;69.92;99545.50;1727783;82;21063;-41
2021/06/01 01:58:21;;;;;;;6.30;4.17;;;;;;;10.07;69.86;99543.69;1704656;82;21848;-41
2021/06/01 02:00:49;;;;;;;8.83;4.30;;;;;;;10.08;69.60;99543.32;1704662;84;21098;-41
2021/06/01 02:03:16;;;;;;;8.48;4.87;;;;;;;10.04;69.57;99540.53;1725467;82;20948;-41
2021/06/01 02:05:44;;;;;;;6.25;5.03;;;;;;;10.04;69.75;99541.89;1710889;82;21055;-41
2021/06/01 02:08:12;;;;;;;7.53;4.78;;;;;;;10.03;69.77;99543.02;1711186;82;21105;-41
2021/06/01 02:10:39;;;;;;;7.70;4.10;;;;;;;10.04;69.72;99541.89;1723415;82;21058;-41
2021/06/01 02:13:06;;;;;;;8.65;4.80;;;;;;;10.10;69.87;99542.98;1721636;82;21092;-41
2021/06/01 02:15:33;;;;;;;9.78;4.60;;;;;;;10.16;69.81;99535.63;1730360;82;21018;-41
2021/06/01 02:18:00;;;;;;;9.28;4.87;;;;;;;10.20;69.68;99534.34;1724422;82;21616;-40
2021/06/01 02:20:27;;;;;;;10.25;5.15;;;;;;;10.20;69.67;99537.84;1729343;82;20975;-41
2021/06/01 02:26:03;;;;;;;6.35;4.40;;;;;;;10.22;69.53;99529.34;1721067;82;21109;-41
2021/06/01 02:28:40;;;;;;;6.37;4.62;;;;;;;10.19;69.60;99536.27;1725094;82;22025;-40
2021/06/01 02:31:15;;;;;;;8.25;4.12;;;;;;;10.16;69.69;99541.61;1734084;82;21007;-41
2021/06/01 02:33:43;;;;;;;6.17;4.72;;;;;;;10.13;69.62;99537.63;1695916;83;21102;-41
2021/06/01 02:36:15;;;;;;;11.45;5.03;;;;;;;10.03;69.63;99534.89;1718665;82;21003;-41
2021/06/01 02:38:42;;;;;;;5.95;4.20;;;;;;;9.98;69.95;99535.16;1707980;83;21058;-41
2021/06/01 02:41:09;;;;;;;8.95;4.12;;;;;;;9.96;70.06;99539.37;1725420;82;20932;-41
2021/06/01 02:43:36;;;;;;;5.83;4.45;;;;;;;9.97;69.91;99546.36;1745232;82;21058;-41
2021/06/01 02:46:02;;;;;;;9.05;4.45;;;;;;;9.95;70.04;99539.94;1722293;82;21040;-41
2021/06/01 02:48:29;;;;;;;10.10;5.15;;;;;;;9.92;70.13;99550.09;1740078;82;21541;-41
2021/06/01 02:50:57;;;;;;;10.00;4.85;;;;;;;9.91;70.30;99548.55;1747995;82;21126;-40
2021/06/01 02:53:24;;;;;;;5.58;3.92;;;;;;;9.91;70.53;99553.96;1741578;82;21035;-41
2021/06/01 02:55:51;;;;;;;6.83;3.80;;;;;;;9.97;70.57;99553.89;1732339;82;21037;-40
2021/06/01 02:58:18;;;;;;;9.05;4.15;;;;;;;10.00;70.09;99549.72;1737042;82;21026;-41
2021/06/01 03:00:45;;;;;;;9.18;4.15;;;;;;;10.01;70.16;99554.00;1736820;82;21023;-41
2021/06/01 03:03:13;;;;;;;6.92;4.37;;;;;;;10.00;70.19;99557.27;1719155;82;21124;-41
2021/06/01 03:05:41;;;;;;;10.68;3.85;;;;;;;10.01;70.26;99552.08;1718057;83;21580;-41
2021/06/01 03:08:30;;;;;;;7.70;4.17;;;;;;;10.04;70.42;99558.14;1725905;82;20936;-41
2021/06/01 03:11:00;;;;;;;11.05;4.33;;;;;;;10.12;70.29;99550.95;1731192;82;21607;-40
2021/06/01 03:13:27;;;;;;;8.10;3.98;;;;;;;10.14;70.12;99554.67;1722197;82;22027;-40
2021/06/01 03:15:54;;;;;;;10.65;4.37;;;;;;;10.16;70.04;99557.30;1733582;82;21141;-40
2021/06/01 03:18:21;;;;;;;6.97;4.15;;;;;;;10.16;69.98;99560.01;1745997;82;21011;-41
2021/06/01 03:23:37;;;;;;;8.78;4.10;;;;;;;10.35;69.97;99549.79;1811443;78;22604;-40
2021/06/01 03:26:04;;;;;;;6.95;4.08;;;;;;;10.31;69.96;99543.51;1793133;79;20980;-40
2021/06/01 03:28:33;;;;;;;8.00;4.22;;;;;;;10.37;69.66;99550.20;1783274;79;21139;-40
2021/06/01 03:30:59;;;;;;;6.72;3.98;;;;;;;10.39;69.69;99555.51;1783952;78;20982;-40
2021/06/01 03:33:29;;;;;;;6.83;4.08;;;;;;;10.43;69.44;99553.66;1800596;78;21002;-40
2021/06/01 03:35:55;;;;;;;7.13;4.03;;;;;;;10.49;69.58;99554.17;1794236;78;20959;-40
2021/06/01 03:38:23;;;;;;;6.78;4.03;;;;;;;10.61;69.69;99553.25;1789122;79;21889;-40
2021/06/01 03:40:49;;;;;;;6.65;3.67;;;;;;;10.70;68.99;99552.47;1801501;79;21311;-40
2021/06/01 03:43:16;;;;;;;6.65;3.50;;;;;;;10.76;68.81;99553.20;1783253;79;21030;-40
2021/06/01 03:45:44;;;;;;;5.25;3.50;;;;;;;10.81;68.51;99554.28;1783444;80;21014;-40
2021/06/01 03:48:11;;;;;;;9.33;3.42;;;;;;;10.84;68.25;99549.48;1786639;79;20996;-40
2021/06/01 03:50:38;;;;;;;6.00;3.40;;;;;;;10.89;67.89;99550.56;1798995;78;20987;-40
2021/06/01 03:53:05;;;;;;;4.42;2.87;;;;;;;10.99;67.23;99552.52;1793928;79;21091;-40
2021/06/01 03:55:33;;;;;;;5.33;3.27;;;;;;;11.08;67.04;99551.73;1792581;78;21584;-40
2021/06/01 03:58:00;;;;;;;5.35;3.60;;;;;;;11.11;67.25;99550.44;1787869;79;21082;-40
2021/06/01 04:00:29;;;;;;;4.78;2.98;;;;;;;11.15;67.04;99549.92;1811081;79;21075;-40
2021/06/01 04:02:57;;;;;;;4.40;2.72;;;;;;;11.19;67.16;99554.05;1812541;79;20974;-40
2021/06/01 04:05:24;;;;;;;3.90;2.70;;;;;;;11.23;67.14;99546.20;1741122;82;21068;-40
2021/06/01 04:07:51;;;;;;;6.15;3.20;;;;;;;11.34;67.08;99547.76;1750897;80;20957;-45
2021/06/01 04:10:18;;;;;;;6.47;3.10;;;;;;;11.41;67.32;99545.19;1732404;82;20973;-40
2021/06/01 04:12:46;;;;;;;4.45;3.15;;;;;;;11.46;67.11;99548.18;1748411;82;20979;-40
2021/06/01 04:15:13;;;;;;;7.67;3.42;;;;;;;11.51;66.44;99548.67;1759837;80;20983;-40
2021/06/01 04:17:40;;;;;;;7.22;3.75;;;;;;;11.51;65.95;99550.60;1718719;83;21083;-40
2021/06/01 04:20:08;;;;;;;8.33;2.92;;;;;;;11.51;65.71;99547.31;1748368;82;21631;-40
2021/06/01 04:22:35;;;;;;;4.72;2.92;;;;;;;11.54;65.80;99546.58;1750452;81;20999;-40
2021/06/01 04:25:04;;;;;;;6.67;3.47;;;;;;;11.57;64.55;99539.66;1790175;79;21596;-40
2021/06/01 04:27:30;;;;;;;6.20;3.77;;;;;;;11.57;65.54;99546.45;1786811;79;21529;-40
2021/06/01 04:29:57;;;;;;;5.65;3.10;;;;;;;11.58;64.78;99546.07;1766010;81;21743;-40
2021/06/01 04:32:24;;;;;;;5.40;3.55;;;;;;;11.58;64.43;99546.07;1772482;80;20920;-40
2021/06/01 04:34:50;;;;;;;7.95;3.12;;;;;;;11.55;64.21;99535.94;1781269;79;20972;-40
2021/06/01 04:37:17;;;;;;;5.75;3.15;;;;;;;11.59;64.46;99542.21;1777288;79;20968;-40
2021/06/01 04:39:44;;;;;;;5.03;3.33;;;;;;;11.66;64.58;99539.64;1799618;79;21036;-40
2021/06/01 04:42:11;;;;;;;7.50;3.33;;;;;;;11.70;64.39;99535.05;1788031;79;21142;-40
2021/06/01 04:44:38;;;;;;;3.83;3.05;;;;;;;11.75;64.36;99535.34;1781008;79;21011;-40
2021/06/01 04:47:04;;;;;;;5.30;3.30;;;;;;;11.82;64.95;99539.52;1778635;79;21901;-40
2021/06/01 04:49:31;;;;;;;4.40;3.42;;;;;;;11.86;64.10;99531.45;1778334;79;21645;-40
2021/06/01 04:51:58;;;;;;;4.17;3.05;;;;;;;11.91;64.18;99532.50;1773970;79;21055;-40
2021/06/01 04:54:24;;;;;;;4.67;3.30;;;;;;;11.94;63.72;99537.98;1759234;81;21158;-40
2021/06/01 04:56:51;;;;;;;5.75;3.40;;;;;;;11.98;62.99;99533.96;1737245;82;21036;-40
2021/06/01 04:59:18;;;;;;;8.45;3.60;;;;;;;12.01;63.07;99538.66;1767799;81;21050;-40
2021/06/01 05:01:45;;;;;;;4.97;3.25;;;;;;;12.03;62.28;99537.16;1737518;81;21561;-40
2021/06/01 05:04:11;;;;;;;6.58;3.62;;;;;;;12.05;62.28;99538.16;1736098;82;21819;-40
2021/06/01 05:06:38;;;;;;;4.47;3.40;;;;;;;12.03;62.73;99537.16;1724848;82;21114;-40
2021/06/01 05:09:05;;;;;;;3.52;2.90;;;;;;;12.05;62.86;99544.36;1719088;82;20981;-40
2021/06/01 05:11:33;;;;;;;4.65;3.35;;;;;;;12.11;61.27;99543.48;1731905;82;21087;-40
2021/06/01 05:14:00;;;;;;;3.98;3.20;;;;;;;12.17;60.98;99537.95;1717145;82;21154;-40
2021/06/01 05:16:28;;;;;;;4.37;3.50;;;;;;;12.20;61.90;99538.00;1717451;81;21060;-41
2021/06/01 05:18:55;;;;;;;6.85;3.47;;;;;;;12.27;61.33;99535.97;1716765;82;21869;-40
2021/06/01 05:21:22;;;;;;;7.42;3.20;;;;;;;12.37;60.92;99540.78;1729237;82;21104;-40
2021/06/01 05:23:48;;;;;;;7.15;3.50;;;;;;;12.41;60.91;99538.89;1696506;82;20979;-40
2021/06/01 05:26:15;;;;;;;5.08;3.45;;;;;;;12.45;61.09;99541.66;1790703;79;20932;-40
2021/06/01 05:28:42;;;;;;;8.85;3.65;;;;;;;12.48;61.16;99539.00;1788356;79;20992;-40
2021/06/01 05:31:22;;;;;;;4.28;3.10;;;;;;;12.55;61.39;99543.16;1771699;81;21091;-40
2021/06/01 05:33:54;;;;;;;3.75;2.75;;;;;;;12.70;61.41;99540.63;1737021;82;20984;-40
2021/06/01 05:36:17;;;;;;;5.58;3.10;;;;;;;12.85;60.58;99537.73;1727383;82;20985;-40
2021/06/01 05:38:43;;;;;;;6.60;3.00;;;;;;;12.97;59.89;99540.20;1742256;82;20952;-40
2021/06/01 05:41:10;;;;;;;4.42;2.87;;;;;;;13.07;58.59;99540.11;1744154;82;20991;-40
2021/06/01 05:43:38;;;;;;;5.03;2.70;;;;;;;13.12;57.72;99531.66;1735028;82;21098;-40
2021/06/01 05:46:06;;;;;;;3.12;2.55;;;;;;;13.20;58.94;99531.17;1742877;82;21979;-40
2021/06/01 05:48:32;;;;;;;3.47;2.62;;;;;;;13.28;57.25;99539.03;1732432;82;21063;-40
2021/06/01 05:50:59;;;;;;;6.33;3.12;;;;;;;13.33;57.04;99531.11;1734014;82;21034;-40
2021/06/01 05:53:26;;;;;;;3.42;2.90;;;;;;;13.36;56.84;99535.22;1737267;82;21046;-40
2021/06/01 05:55:54;;;;;;;4.80;2.95;;;;;;;13.38;56.22;99532.92;1719774;82;21098;-40
2021/06/01 05:58:22;;;;;;;6.87;3.00;;;;;;;13.38;56.39;99530.77;1766915;79;21018;-39
2021/06/01 06:00:49;;;;;;;5.97;3.22;;;;;;;13.38;58.19;99528.84;1777547;79;21105;-40
2021/06/01 06:03:16;;;;;;;4.85;3.20;;;;;;;13.44;57.59;99527.34;1784629;79;21030;-40
2021/06/01 06:05:44;;;;;;;4.90;2.90;;;;;;;13.50;58.32;99525.08;1798012;79;21047;-40
2021/06/01 06:08:17;;;;;;;;;;;;;;;13.59;57.49;99528.27;1805360;79;21036;-40
2021/06/01 06:10:45;;;;;;;6.92;3.25;;;;;;;13.71;56.81;99523.10;1778981;79;20722;-40
2021/06/01 06:13:14;;;;;;;5.97;2.22;;;;;;;13.77;57.46;99522.97;1753156;79;20988;-39
2021/06/01 06:15:40;;;;;;;2.95;1.92;;;;;;;13.93;55.28;99522.14;1783632;79;21015;-40
2021/06/01 06:18:38;;;;;;;4.47;2.52;;;;;;;13.99;53.07;99522.58;1784791;79;21035;-40
2021/06/01 06:21:06;;;;;;;4.75;2.08;;;;;;;14.02;53.45;99521.81;1788286;79;21086;-40
2021/06/01 06:23:35;;;;;;;3.52;2.22;;;;;;;14.00;52.19;99514.00;1782072;79;21063;-40
2021/06/01 06:26:02;;;;;;;5.15;2.37;;;;;;;14.00;51.75;99513.22;1775765;79;21048;-40
2021/06/01 06:28:31;;;;;;;6.15;2.33;;;;;;;14.03;53.00;99524.17;1777745;79;21052;-40
2021/06/01 06:30:58;;;;;;;4.35;2.00;;;;;;;14.07;53.05;99519.52;1790286;80;21671;-40
2021/06/01 06:33:25;;;;;;;4.03;2.00;;;;;;;14.06;52.97;99527.48;1790466;80;21067;-40
2021/06/01 06:35:53;;;;;;;4.58;2.40;;;;;;;14.12;53.18;99526.56;1787769;79;21015;-40
2021/06/01 06:38:19;;;;;;;4.83;2.20;;;;;;;14.20;52.66;99533.63;1782553;79;21600;-40
2021/06/01 06:40:59;;;;;;;6.03;2.20;;;;;;;14.30;53.38;99528.82;1794120;79;21658;-40
2021/06/01 06:43:14;;;;;;;6.47;2.27;;;;;;;14.43;52.87;99526.00;1798676;79;21617;-40
2021/06/01 06:45:41;;;;;;;5.80;2.08;;;;;;;14.58;53.54;99525.50;1776014;79;21043;-40
2021/06/01 06:48:09;;;;;;;5.85;2.12;;;;;;;14.74;52.15;99526.77;1783955;79;20981;-40
2021/06/01 06:50:37;;;;;;;3.22;1.92;;;;;;;14.85;50.26;99529.55;1784090;79;21063;-40
2021/06/01 06:53:05;;;;;;;3.45;1.90;;;;;;;14.93;50.27;99533.08;1774298;79;21091;-40
2021/06/01 06:55:33;;;;;;;3.83;1.85;;;;;;;14.95;50.10;99531.55;1783094;79;20952;-40
2021/06/01 06:58:00;;;;;;;5.75;2.20;;;;;;;14.94;49.73;99532.70;1795563;79;21589;-40
2021/06/01 07:00:27;;;;;;;6.25;2.10;;;;;;;14.90;50.24;99533.86;1789015;79;21538;-40
2021/06/01 07:02:54;;;;;;;4.08;1.85;;;;;;;14.85;49.43;99534.23;1795367;79;21584;-40
2021/06/01 07:05:21;;;;;;;8.18;2.25;;;;;;;14.85;49.90;99535.02;1793423;79;20940;-40
2021/06/01 07:07:53;;;;;;;10.80;2.08;;;;;;;14.87;50.33;99522.33;1778230;79;21357;-40
2021/06/01 07:10:20;;;;;;;;;;;;;;;14.91;49.85;99525.27;1735558;82;21035;-40
2021/06/01 07:12:47;;;;;;;6.10;1.90;;;;;;;14.98;49.72;99532.12;1741616;82;20181;-40
2021/06/01 07:15:28;;;;;;;5.12;1.67;;;;;;;15.04;50.41;99525.72;1741559;82;21699;-40
2021/06/01 07:17:57;;;;;;;2.75;1.85;;;;;;;15.20;49.70;99531.02;1741691;82;21058;-40
2021/06/01 07:20:26;;;;;;;3.98;2.10;;;;;;;15.35;49.69;99531.05;1709950;83;21317;-40
2021/06/01 07:22:52;;;;;;;3.85;1.92;;;;;;;15.36;48.08;99535.36;1701522;84;21629;-41
2021/06/01 07:25:18;;;;;;;3.25;1.92;;;;;;;15.30;48.44;99537.68;1757282;81;21022;-40
2021/06/01 07:27:45;;;;;;;5.67;2.02;;;;;;;15.26;49.57;99533.38;1742759;82;20947;-40
2021/06/01 07:30:15;;;;;;;6.92;2.20;;;;;;;15.32;49.73;99528.53;1742239;82;21042;-40
2021/06/01 07:32:43;;;;;;;4.75;1.90;;;;;;;15.44;48.77;99528.77;1716114;83;22182;-40
2021/06/01 07:35:11;;;;;;;6.78;2.00;;;;;;;15.56;49.43;99535.23;1758186;81;21125;-40
2021/06/01 07:37:38;;;;;;;5.55;1.85;;;;;;;15.70;50.09;99524.32;1748646;82;21030;-40
2021/06/01 07:40:07;;;;;;;6.20;2.20;;;;;;;15.85;47.59;99539.56;1732775;81;20960;-40
2021/06/01 07:42:36;;;;;;;10.68;2.20;;;;;;;15.85;47.73;99542.30;1752121;81;21014;-40
2021/06/01 07:45:05;;;;;;;5.75;2.27;;;;;;;15.79;47.22;99545.22;1731051;82;21007;-40
2021/06/01 07:47:32;;;;;;;2.75;1.67;;;;;;;15.71;47.51;99547.75;1730829;82;21686;-40
2021/06/01 07:49:59;;;;;;;8.00;1.90;;;;;;;15.71;48.60;99545.61;1734066;82;21005;-40
2021/06/01 07:52:27;;;;;;;5.25;2.00;;;;;;;15.76;47.24;99540.54;1752641;81;20947;-40
2021/06/01 07:54:55;;;;;;;2.77;1.82;;;;;;;15.89;48.64;99536.82;1759148;81;21070;-40
2021/06/01 07:57:23;;;;;;;7.50;1.98;;;;;;;16.02;48.04;99523.73;1748748;82;20947;-40
2021/06/01 07:59:50;;;;;;;5.78;1.85;;;;;;;16.17;46.99;99523.75;1740589;82;21595;-40
2021/06/01 08:02:16;;;;;;;9.70;2.10;;;;;;;16.26;47.58;99522.17;1732075;81;21681;-40
2021/06/01 08:04:43;;;;;;;5.55;1.90;;;;;;;16.37;47.83;99522.91;1739920;82;21016;-40
2021/06/01 08:07:11;;;;;;;4.62;2.00;;;;;;;16.43;46.14;99526.03;1743903;81;20974;-40
2021/06/01 08:09:38;;;;;;;5.87;2.10;;;;;;;16.33;45.00;99519.41;1750183;81;21088;-40
2021/06/01 08:12:07;;;;;;;3.15;1.60;;;;;;;16.30;47.49;99527.05;1732956;80;21147;-40
2021/06/01 08:14:34;;;;;;;5.08;1.65;;;;;;;16.24;45.64;99514.15;1749264;81;21095;-40
2021/06/01 08:17:04;;;;;;;4.83;1.90;;;;;;;16.14;46.39;99522.56;1755468;81;21580;-40
2021/06/01 08:19:40;;;;;;;5.28;1.77;;;;;;;16.03;45.90;99519.83;1763993;80;21620;-41
2021/06/01 08:22:12;;;;;;;5.65;1.90;;;;;;;16.08;46.36;99515.92;1754651;80;21122;-40
2021/06/01 08:24:33;;;;;;;3.67;1.93;;;;;;;16.39;46.48;99508.84;1769593;80;22375;-40
2021/06/01 08:26:59;;;;;;;2.83;1.82;;;;;;;16.39;46.48;99508.84;1768794;80;21273;-40
2021/06/01 08:29:26;;;;;;;4.50;1.80;;;;;;;16.63;47.97;99494.34;1771959;80;20986;-40
2021/06/01 08:31:53;;;;;;;3.27;1.75;;;;;;;16.89;48.20;99501.29;1762573;80;21031;-40
2021/06/01 08:34:20;;;;;;;2.27;1.52;;;;;;;17.09;44.86;99500.97;1758330;80;21035;-40
2021/06/01 08:36:49;;;;;;;1.70;1.60;;;;;;;17.16;44.04;99502.91;1755506;80;21147;-40
2021/06/01 08:39:15;;;;;;;2.62;1.57;;;;;;;17.18;43.41;99500.56;1751936;80;21356;-40
2021/06/01 08:41:44;;;;;;;6.83;2.10;;;;;;;17.10;43.11;99501.75;1763987;80;20976;-40
2021/06/01 08:44:13;;;;;;;2.83;1.60;;;;;;;16.98;44.09;99507.70;1759831;80;21071;-40
2021/06/01 08:46:39;;;;;;;3.50;1.53;;;;;;;16.90;44.00;99505.56;1771092;80;21087;-40
2021/06/01 08:49:07;;;;;;;5.55;1.70;;;;;;;16.95;43.91;99505.16;1756747;80;21075;-40
2021/06/01 08:51:33;;;;;;;3.58;1.67;;;;;;;17.00;41.61;99494.37;1758670;80;22161;-40
2021/06/01 08:54:00;;;;;;;3.92;1.80;;;;;;;16.95;42.07;99501.05;1755821;80;20983;-40
2021/06/01 08:56:27;;;;;;;3.90;1.60;;;;;;;16.79;42.84;99497.42;1758066;80;21180;-40
2021/06/01 08:58:53;;;;;;;6.20;1.98;;;;;;;16.63;42.65;99494.34;1760501;80;21552;-40
2021/06/01 09:01:21;;;;;;;3.83;1.67;;;;;;;16.77;42.57;99497.02;1751377;81;21634;-40
2021/06/01 09:03:51;;;;;;;2.50;1.60;;;;;;;17.00;42.11;99493.00;1762948;80;21031;-40
2021/06/01 09:06:33;;;;;;;3.87;1.67;;;;;;;17.17;43.49;99486.08;1770296;80;21264;-40
2021/06/01 09:23:05;;;;;;;7.58;2.20;;;;;;;17.10;44.04;99488.06;1714609;83;21054;-41
2021/06/01 09:25:39;;;;;;;2.40;1.50;;;;;;;17.03;43.51;99483.42;1725106;80;21636;-41
2021/06/01 09:28:04;;;;;;;3.12;1.92;;;;;;;16.91;43.33;99496.17;1771976;80;21085;-41
2021/06/01 09:30:47;;;;;;;2.42;1.62;;;;;;;16.83;44.14;99490.55;1768632;80;20959;-41
2021/06/01 09:33:22;;;;;;;3.87;1.70;;;;;;;16.79;44.72;99493.31;1764489;80;20998;-41
2021/06/01 09:35:55;;;;;;;3.10;1.50;;;;;;;16.81;42.69;99488.20;1756194;80;21014;-41
2021/06/01 09:38:42;;;;;;;3.83;1.50;;;;;;;16.84;41.70;99486.05;1760807;80;21090;-41
2021/06/01 09:41:16;;;;;;;5.42;1.72;;;;;;;16.88;41.34;99485.45;1782376;80;21071;-41
2021/06/01 09:43:54;;;;;;;4.17;1.72;;;;;;;17.03;41.89;99475.20;1782251;80;20986;-41
2021/06/01 09:46:30;;;;;;;3.15;1.62;;;;;;;17.18;42.55;99486.86;1782435;80;21533;-41
2021/06/01 09:49:17;;;;;;;2.92;1.50;;;;;;;17.26;42.72;99480.14;1777324;80;21007;-41
2021/06/01 09:52:04;;;;;;;4.20;1.30;;;;;;;17.22;42.15;99487.61;1784264;80;20990;-41
2021/06/01 09:54:45;;;;;;;3.67;1.60;;;;;;;17.05;41.38;99487.89;1758027;80;21068;-41
2021/06/01 09:57:26;;;;;;;2.40;1.37;;;;;;;16.93;42.48;99486.40;1771799;80;20998;-41
2021/06/01 10:00:16;;;;;;;4.10;1.52;;;;;;;16.92;41.24;99482.09;1757189;80;21628;-41
2021/06/01 10:02:54;;;;;;;8.20;1.90;;;;;;;16.95;42.33;99484.61;1751757;80;21588;-41
2021/06/01 10:05:25;;;;;;;3.37;1.60;;;;;;;16.89;41.55;99480.13;1717905;83;21018;-41
2021/06/01 10:07:54;;;;;;;4.47;1.55;;;;;;;16.78;41.51;99478.05;1734184;82;21042;-41
2021/06/01 10:10:30;;;;;;;3.12;1.62;;;;;;;16.70;41.78;99480.61;1718203;82;21063;-41
2021/06/01 10:13:03;;;;;;;3.83;1.80;;;;;;;16.73;43.24;99484.53;1709719;83;21031;-41
2021/06/01 10:15:31;;;;;;;7.95;2.00;;;;;;;16.79;41.63;99486.47;1702360;83;21079;-41
2021/06/01 10:17:59;;;;;;;2.67;1.55;;;;;;;16.79;40.72;99480.99;1713379;83;21055;-41
2021/06/01 10:20:27;;;;;;;2.10;1.35;;;;;;;16.73;40.85;99484.53;1698272;83;21097;-41
2021/06/01 10:22:55;;;;;;;6.83;1.72;;;;;;;16.70;40.85;99490.81;1715870;83;21423;-41
2021/06/01 10:25:23;;;;;;;;;;;;;;;16.69;40.07;99484.55;1708668;83;21665;-41
2021/06/01 10:27:52;;;;;;;4.12;1.67;;;;;;;16.81;39.84;99480.58;1714268;83;20231;-41
2021/06/01 10:30:21;;;;;;;5.03;1.52;;;;;;;17.03;40.35;99472.46;1710668;82;21086;-41
2021/06/01 10:32:54;;;;;;;5.33;1.65;;;;;;;17.31;40.08;99472.88;1748598;81;21048;-41
2021/06/01 10:35:23;;;;;;;3.42;1.50;;;;;;;17.49;41.00;99483.12;1738893;82;20999;-41
2021/06/01 10:52:03;;;;;;;3.25;1.30;;;;;;;17.40;40.19;99475.94;1739997;82;21506;-41
2021/06/01 10:54:49;;;;;;;2.62;1.47;;;;;;;17.39;40.22;99475.75;1746183;82;21065;-41
2021/06/01 10:57:17;;;;;;;4.53;1.67;;;;;;;17.35;39.68;99472.25;1734648;81;21019;-41
2021/06/01 11:01:49;;;;;;;3.98;1.72;;;;;;;17.29;40.93;99472.48;1752457;81;21260;-41
2021/06/01 11:02:27;;;;;;;4.50;1.40;;;;;;;17.31;40.71;99465.44;1736085;82;21030;-41
2021/06/01 11:05:12;;;;;;;4.62;1.72;;;;;;;17.31;39.40;99472.88;1744053;82;20987;-41
2021/06/01 11:07:58;;;;;;;2.85;1.65;;;;;;;17.30;40.32;99471.31;1728754;82;21027;-41
2021/06/01 11:10:45;;;;;;;5.37;1.50;;;;;;;17.37;39.88;99467.95;1746370;81;21583;-41
2021/06/01 11:13:27;;;;;;;6.08;1.60;;;;;;;17.73;42.00;99462.98;1746358;81;20943;-41
2021/06/01 11:15:56;;;;;;;5.33;1.35;;;;;;;18.16;40.86;99463.95;1724759;82;21053;-42
2021/06/01 11:18:35;;;;;;;6.28;1.30;;;;;;;18.43;40.63;99457.21;1744135;82;21035;-42
2021/06/01 11:33:13;;;;;;;1.98;1.40;;;;;;;18.93;37.53;99444.43;1749955;80;21116;-41
2021/06/01 11:35:42;;;;;;;2.70;1.42;;;;;;;19.18;34.34;99439.18;1758837;80;21062;-41
2021/06/01 11:38:27;;;;;;;4.00;1.42;;;;;;;19.18;35.35;99452.92;1780722;80;21011;-41
2021/06/01 11:43:24;;;;;;;4.03;1.50;;;;;;;18.72;36.39;99446.70;1746863;80;20995;-42
2021/06/01 11:46:13;;;;;;;3.92;1.67;;;;;;;18.54;36.81;99446.92;1756168;80;21018;-41
2021/06/01 11:51:21;;;;;;;12.88;2.22;;;;;;;18.19;37.17;99465.91;1744308;80;21044;-41
2021/06/01 11:53:58;;;;;;;2.25;1.60;;;;;;;18.05;38.16;99460.55;1750852;80;21022;-41
2021/06/01 11:56:43;;;;;;;2.05;1.30;;;;;;;18.05;39.05;99453.11;1773766;80;21033;-41
2021/06/01 12:11:15;;;;;;;3.42;1.50;;;;;;;18.48;36.79;99445.19;1691210;81;21968;-41
2021/06/01 12:18:42;;;;;;;2.45;1.80;;;;;;;18.33;36.41;99446.54;1737223;80;21118;-41
2021/06/01 12:21:18;;;;;;;5.12;1.50;;;;;;;18.38;35.47;99447.46;1736129;80;21695;-41
2021/06/01 12:24:01;;;;;;;3.00;1.62;;;;;;;18.46;37.34;99446.19;1748784;82;21023;-41
2021/06/01 12:26:42;;;;;;;8.85;1.77;;;;;;;18.76;37.50;99448.80;1762717;80;21062;-41
2021/06/01 12:32:28;;;;;;;4.83;1.72;;;;;;;18.80;35.37;99453.05;1761542;80;21584;-41
2021/06/01 12:43:44;;;;;;;;;;;;;;;18.87;34.96;99437.09;1772038;80;21030;-41
2021/06/01 13:07:31;;;;;;;5.00;1.60;;;;;;;18.48;35.72;99445.19;1762226;80;20999;-41
2021/06/01 13:23:27;;;;;;;4.67;1.60;;;;;;;18.24;37.20;99442.13;1758665;80;20912;-40
2021/06/01 13:48:07;;;;;;;6.65;1.65;;;;;;;18.27;38.29;99435.81;1735137;82;21078;-41
2021/06/01 13:50:41;;;;;;;5.80;1.75;;;;;;;18.30;37.77;99426.75;1737856;82;21037;-41
2021/06/01 13:55:06;;;;;;;5.47;1.77;;;;;;;18.21;37.88;99441.56;1741085;81;20983;-40
2021/06/01 13:55:42;;;;;;;5.05;1.85;;;;;;;18.05;37.74;99442.14;1741000;82;21066;-41
2021/06/01 14:01:01;;;;;;;5.30;1.70;;;;;;;17.71;38.73;99448.13;1748225;82;21086;-40
2021/06/01 14:11:31;;;;;;;3.55;1.52;;;;;;;17.62;39.92;99443.71;1724858;82;21843;-40
2021/06/01 14:22:00;;;;;;;5.37;1.80;;;;;;;17.61;38.04;99438.03;1760223;81;21098;-40
2021/06/01 14:38:11;;;;;;;3.98;1.22;;;;;;;17.44;38.93;99435.58;1754650;80;21903;-40
2021/06/01 15:50:23;;;;;;;3.90;1.65;;;;;;;16.92;41.42;99445.71;1854072;76;20930;-40
2021/06/01 15:55:41;;;;;;;2.70;1.62;;;;;;;16.95;41.37;99447.05;1844203;75;20994;-40